sensor_id;sensor_type;location;lat;lon;timestamp;pressure;altitude;pressure_sealevel;temperature;humidity
39793;BME280;26080;42.264;24.536;2023-01-28T00:01:37;98542.69;;;1.89;100.00
39793;BME280;26080;42.264;24.536;2023-01-28T00:04:03;98542.75;;;1.86;100.00
39793;BME280;26080;42.264;24.536;2023-01-28T00:06:28;98530.09;;;1.75;100.00
39793;BME280;26080;42.264;24.536;2023-01-28T00:08:54;98554.88;;;1.84;100.00
39793;BME280;26080;42.264;24.536;2023-01-28T00:11:20;98555.63;;;1.88;100.00
39793;BME280;26080;42.264;24.536;2023-01-28T00:13:52;98551.47;;;1.82;100.00
39793;BME280;26080;42.264;24.536;2023-01-28T00:16:18;98536.28;;;1.70;100.00
39793;BME280;26080;42.264;24.536;2023-01-28T00:18:44;98557.56;;;1.80;100.00
39793;BME280;26080;42.264;24.536;2023-01-28T00:21:13;98560.09;;;1.81;100.00
39793;BME280;26080;42.264;24.536;2023-01-28T00:23:40;98555.78;;;1.82;100.00
39793;BME280;26080;42.264;24.536;2023-01-28T00:26:12;98553.31;;;1.77;100.00
39793;BME280;26080;42.264;24.536;2023-01-28T00:28:39;98556.72;;;1.77;100.00
39793;BME280;26080;42.264;24.536;2023-01-28T00:31:24;98560.25;;;1.75;100.00
39793;BME280;26080;42.264;24.536;2023-01-28T00:33:51;98571.38;;;1.78;100.00
39793;BME280;26080;42.264;24.536;2023-01-28T00:36:19;98551.84;;;1.67;100.00
39793;BME280;26080;42.264;24.536;2023-01-28T00:38:53;98561.25;;;1.69;100.00
39793;BME280;26080;42.264;24.536;2023-01-28T00:41:21;98588.47;;;1.83;100.00
39793;BME280;26080;42.264;24.536;2023-01-28T00:43:48;98582.53;;;1.79;100.00
39793;BME280;26080;42.264;24.536;2023-01-28T00:46:14;98589.31;;;1.83;100.00
39793;BME280;26080;42.264;24.536;2023-01-28T00:48:41;98592.72;;;1.85;100.00
39793;BME280;26080;42.264;24.536;2023-01-28T00:51:08;98580.00;;;1.76;100.00
39793;BME280;26080;42.264;24.536;2023-01-28T00:53:34;98575.81;;;1.72;100.00
39793;BME280;26080;42.264;24.536;2023-01-28T00:56:02;98600.41;;;1.87;100.00
39793;BME280;26080;42.264;24.536;2023-01-28T00:58:27;98588.56;;;1.80;100.00
39793;BME280;26080;42.264;24.536;2023-01-28T01:00:53;98602.16;;;1.86;100.00
39793;BME280;26080;42.264;24.536;2023-01-28T01:03:18;98599.69;;;1.82;100.00
39793;BME280;26080;42.264;24.536;2023-01-28T01:05:45;98609.00;;;1.87;100.00
39793;BME280;26080;42.264;24.536;2023-01-28T01:08:10;98609.91;;;1.86;100.00
39793;BME280;26080;42.264;24.536;2023-01-28T01:10:37;98610.75;;;1.87;100.00
39793;BME280;26080;42.264;24.536;2023-01-28T01:13:04;98616.75;;;1.87;100.00
39793;BME280;26080;42.264;24.536;2023-01-28T01:15:30;98616.75;;;1.87;100.00
39793;BME280;26080;42.264;24.536;2023-01-28T01:17:56;98614.16;;;1.87;100.00
39793;BME280;26080;42.264;24.536;2023-01-28T01:20:25;98611.56;;;1.89;100.00
39793;BME280;26080;42.264;24.536;2023-01-28T01:22:51;98615.94;;;1.85;100.00
39793;BME280;26080;42.264;24.536;2023-01-28T01:25:17;98610.81;;;1.84;100.00
39793;BME280;26080;42.264;24.536;2023-01-28T01:27:43;98598.03;;;1.77;100.00
39793;BME280;26080;42.264;24.536;2023-01-28T01:30:11;98609.16;;;1.81;100.00
39793;BME280;26080;42.264;24.536;2023-01-28T01:32:37;98599.75;;;1.78;100.00
39793;BME280;26080;42.264;24.536;2023-01-28T01:35:04;98592.25;;;1.68;100.00
39793;BME280;26080;42.264;24.536;2023-01-28T01:37:35;98616.06;;;1.81;100.00
39793;BME280;26080;42.264;24.536;2023-01-28T01:40:02;98616.91;;;1.81;100.00
39793;BME280;26080;42.264;24.536;2023-01-28T01:42:29;98622.91;;;1.82;100.00
39793;BME280;26080;42.264;24.536;2023-01-28T01:47:32;98588.19;;;1.58;100.00
39793;BME280;26080;42.264;24.536;2023-01-28T01:50:04;98622.28;;;1.72;100.00
39793;BME280;26080;42.264;24.536;2023-01-28T01:52:34;98604.44;;;1.61;100.00
39793;BME280;26080;42.264;24.536;2023-01-28T01:55:02;98620.72;;;1.65;100.00
39793;BME280;26080;42.264;24.536;2023-01-28T01:57:31;98631.06;;;1.65;100.00
39793;BME280;26080;42.264;24.536;2023-01-28T02:00:02;98627.66;;;1.61;100.00
39793;BME280;26080;42.264;24.536;2023-01-28T02:02:37;98622.53;;;1.60;100.00
39793;BME280;26080;42.264;24.536;2023-01-28T02:05:05;98631.16;;;1.59;100.00
39793;BME280;26080;42.264;24.536;2023-01-28T02:07:31;98619.31;;;1.50;100.00
39793;BME280;26080;42.264;24.536;2023-01-28T02:09:57;98637.19;;;1.59;100.00
39793;BME280;26080;42.264;24.536;2023-01-28T02:12:27;98607.31;;;1.47;100.00
39793;BME280;26080;42.264;24.536;2023-01-28T02:14:57;98637.22;;;1.58;100.00
39793;BME280;26080;42.264;24.536;2023-01-28T02:17:25;98634.72;;;1.55;100.00
39793;BME280;26080;42.264;24.536;2023-01-28T02:20:18;98650.13;;;1.58;100.00
39793;BME280;26080;42.264;24.536;2023-01-28T02:31:06;98652.19;;;1.42;100.00
39793;BME280;26080;42.264;24.536;2023-01-28T02:33:46;98662.47;;;1.43;100.00
39793;BME280;26080;42.264;24.536;2023-01-28T02:39:04;98631.91;;;1.25;100.00
39793;BME280;26080;42.264;24.536;2023-01-28T02:41:36;98658.28;;;1.38;100.00
39793;BME280;26080;42.264;24.536;2023-01-28T02:44:05;98653.97;;;1.38;100.00
39793;BME280;26080;42.264;24.536;2023-01-28T02:49:22;98660.84;;;1.39;100.00
39793;BME280;26080;42.264;24.536;2023-01-28T02:57:26;98667.66;;;1.42;100.00
39793;BME280;26080;42.264;24.536;2023-01-28T03:02:38;98674.41;;;1.47;100.00
39793;BME280;26080;42.264;24.536;2023-01-28T03:05:30;98673.53;;;1.48;100.00
39793;BME280;26080;42.264;24.536;2023-01-28T03:07:59;98670.06;;;1.49;100.00
39793;BME280;26080;42.264;24.536;2023-01-28T03:10:45;98671.78;;;1.49;100.00
39793;BME280;26080;42.264;24.536;2023-01-28T03:13:30;98668.50;;;1.42;100.00
39793;BME280;26080;42.264;24.536;2023-01-28T03:16:14;98668.44;;;1.45;100.00
39793;BME280;26080;42.264;24.536;2023-01-28T03:18:58;98673.50;;;1.50;100.00
39793;BME280;26080;42.264;24.536;2023-01-28T03:21:43;98682.97;;;1.49;100.00
39793;BME280;26080;42.264;24.536;2023-01-28T03:24:30;98651.53;;;1.31;100.00
39793;BME280;26080;42.264;24.536;2023-01-28T03:30:12;98676.19;;;1.45;100.00
39793;BME280;26080;42.264;24.536;2023-01-28T03:32:58;98685.59;;;1.48;100.00
39793;BME280;26080;42.264;24.536;2023-01-28T03:35:45;98679.56;;;1.47;100.00
39793;BME280;26080;42.264;24.536;2023-01-28T03:38:30;98690.81;;;1.45;100.00
39793;BME280;26080;42.264;24.536;2023-01-28T03:41:07;98693.38;;;1.46;100.00
39793;BME280;26080;42.264;24.536;2023-01-28T03:43:33;98682.31;;;1.40;100.00
39793;BME280;26080;42.264;24.536;2023-01-28T03:45:59;98694.28;;;1.44;100.00
39793;BME280;26080;42.264;24.536;2023-01-28T03:48:26;98695.91;;;1.48;100.00
39793;BME280;26080;42.264;24.536;2023-01-28T03:50:54;98689.88;;;1.49;100.00
39793;BME280;26080;42.264;24.536;2023-01-28T03:53:20;98696.75;;;1.48;100.00
39793;BME280;26080;42.264;24.536;2023-01-28T03:55:48;98702.75;;;1.49;100.00
39793;BME280;26080;42.264;24.536;2023-01-28T03:58:15;98701.06;;;1.48;100.00
39793;BME280;26080;42.264;24.536;2023-01-28T04:00:41;98702.81;;;1.47;100.00
39793;BME280;26080;42.264;24.536;2023-01-28T04:03:16;98708.78;;;1.49;100.00
39793;BME280;26080;42.264;24.536;2023-01-28T04:08:12;98706.22;;;1.48;100.00
39793;BME280;26080;42.264;24.536;2023-01-28T04:10:38;98701.97;;;1.45;100.00
39793;BME280;26080;42.264;24.536;2023-01-28T04:13:05;98711.56;;;1.40;100.00
39793;BME280;26080;42.264;24.536;2023-01-28T04:15:31;98689.53;;;1.24;100.00
39793;BME280;26080;42.264;24.536;2023-01-28T04:17:57;98685.22;;;1.23;100.00
39793;BME280;26080;42.264;24.536;2023-01-28T04:20:22;98698.84;;;1.31;100.00
39793;BME280;26080;42.264;24.536;2023-01-28T04:22:48;98708.25;;;1.32;100.00
39793;BME280;26080;42.264;24.536;2023-01-28T04:25:13;98713.41;;;1.34;100.00
39793;BME280;26080;42.264;24.536;2023-01-28T04:27:39;98720.28;;;1.33;100.00
39793;BME280;26080;42.264;24.536;2023-01-28T04:30:05;98711.78;;;1.28;100.00
39793;BME280;26080;42.264;24.536;2023-01-28T04:32:30;98719.50;;;1.30;100.00
39793;BME280;26080;42.264;24.536;2023-01-28T04:34:56;98725.53;;;1.29;100.00
39793;BME280;26080;42.264;24.536;2023-01-28T04:37:21;98724.75;;;1.25;100.00
39793;BME280;26080;42.264;24.536;2023-01-28T04:39:47;98702.66;;;1.12;100.00
39793;BME280;26080;42.264;24.536;2023-01-28T04:42:13;98694.94;;;1.09;100.00
39793;BME280;26080;42.264;24.536;2023-01-28T04:44:38;98728.25;;;1.21;100.00
39793;BME280;26080;42.264;24.536;2023-01-28T04:47:03;98732.59;;;1.19;100.00
39793;BME280;26080;42.264;24.536;2023-01-28T04:49:29;98723.31;;;1.09;100.00
39793;BME280;26080;42.264;24.536;2023-01-28T04:51:54;98737.06;;;1.11;100.00
39793;BME280;26080;42.264;24.536;2023-01-28T04:54:20;98735.38;;;1.10;100.00
39793;BME280;26080;42.264;24.536;2023-01-28T04:56:45;98743.19;;;1.04;100.00
39793;BME280;26080;42.264;24.536;2023-01-28T04:59:11;98742.44;;;0.99;100.00
39793;BME280;26080;42.264;24.536;2023-01-28T05:01:36;98757.09;;;0.95;100.00
39793;BME280;26080;42.264;24.536;2023-01-28T05:04:01;98744.25;;;0.92;100.00
39793;BME280;26080;42.264;24.536;2023-01-28T05:06:30;98757.16;;;0.92;100.00
39793;BME280;26080;42.264;24.536;2023-01-28T05:08:56;98754.56;;;0.92;100.00
39793;BME280;26080;42.264;24.536;2023-01-28T05:11:22;98741.94;;;0.77;100.00
39793;BME280;26080;42.264;24.536;2023-01-28T05:13:57;98770.06;;;0.91;100.00
39793;BME280;26080;42.264;24.536;2023-01-28T05:16:23;98764.91;;;0.91;100.00
39793;BME280;26080;42.264;24.536;2023-01-28T05:18:48;98769.25;;;0.88;100.00
39793;BME280;26080;42.264;24.536;2023-01-28T05:21:16;98771.78;;;0.92;100.00
39793;BME280;26080;42.264;24.536;2023-01-28T05:23:41;98760.69;;;0.86;100.00
39793;BME280;26080;42.264;24.536;2023-01-28T05:26:07;98749.59;;;0.81;100.00
39793;BME280;26080;42.264;24.536;2023-01-28T05:28:33;98772.56;;;0.95;100.00
39793;BME280;26080;42.264;24.536;2023-01-28T05:31:05;98775.09;;;0.98;100.00
39793;BME280;26080;42.264;24.536;2023-01-28T05:33:31;98776.00;;;0.96;100.00
39793;BME280;26080;42.264;24.536;2023-01-28T05:35:57;98766.66;;;0.88;100.00
39793;BME280;26080;42.264;24.536;2023-01-28T05:38:22;98785.47;;;0.97;100.00
39793;BME280;26080;42.264;24.536;2023-01-28T05:40:48;98783.72;;;0.96;100.00
39793;BME280;26080;42.264;24.536;2023-01-28T05:43:13;98782.91;;;0.94;100.00
39793;BME280;26080;42.264;24.536;2023-01-28T05:45:39;98782.91;;;0.94;100.00
39793;BME280;26080;42.264;24.536;2023-01-28T05:48:05;98766.75;;;0.84;100.00
39793;BME280;26080;42.264;24.536;2023-01-28T05:50:31;98770.22;;;0.83;100.00
39793;BME280;26080;42.264;24.536;2023-01-28T05:52:56;98799.16;;;0.99;100.00
39793;BME280;26080;42.264;24.536;2023-01-28T05:55:22;98800.88;;;1.00;100.00
39793;BME280;26080;42.264;24.536;2023-01-28T05:57:48;98806.88;;;1.00;100.00
39793;BME280;26080;42.264;24.536;2023-01-28T06:00:14;98811.16;;;1.01;100.00
39793;BME280;26080;42.264;24.536;2023-01-28T06:02:41;98816.25;;;1.04;100.00
39793;BME280;26080;42.264;24.536;2023-01-28T06:05:07;98816.34;;;1.00;100.00
39793;BME280;26080;42.264;24.536;2023-01-28T06:07:32;98818.03;;;1.01;100.00
39793;BME280;26080;42.264;24.536;2023-01-28T06:09:58;98818.94;;;0.98;100.00
39793;BME280;26080;42.264;24.536;2023-01-28T06:12:23;98829.16;;;1.04;100.00
39793;BME280;26080;42.264;24.536;2023-01-28T06:14:49;98842.00;;;1.06;100.00
39793;BME280;26080;42.264;24.536;2023-01-28T06:17:14;98843.66;;;1.11;100.00
39793;BME280;26080;42.264;24.536;2023-01-28T06:19:40;98840.09;;;1.18;100.00
39793;BME280;26080;42.264;24.536;2023-01-28T06:22:05;98848.50;;;1.30;100.00
39793;BME280;26080;42.264;24.536;2023-01-28T06:24:31;98854.38;;;1.38;100.00
39793;BME280;26080;42.264;24.536;2023-01-28T06:26:56;98859.38;;;1.47;100.00
39793;BME280;26080;42.264;24.536;2023-01-28T06:29:22;98864.44;;;1.53;100.00
39793;BME280;26080;42.264;24.536;2023-01-28T06:31:47;98864.38;;;1.56;100.00
39793;BME280;26080;42.264;24.536;2023-01-28T06:34:13;98867.59;;;1.69;100.00
39793;BME280;26080;42.264;24.536;2023-01-28T06:36:39;98870.84;;;1.78;100.00
39793;BME280;26080;42.264;24.536;2023-01-28T06:39:05;98876.75;;;1.85;100.00
39793;BME280;26080;42.264;24.536;2023-01-28T06:41:30;98880.81;;;1.97;100.00
39793;BME280;26080;42.264;24.536;2023-01-28T06:43:56;98878.06;;;2.06;100.00
39793;BME280;26080;42.264;24.536;2023-01-28T06:46:22;98884.75;;;2.15;100.00
39793;BME280;26080;42.264;24.536;2023-01-28T06:48:49;98884.69;;;2.18;100.00
39793;BME280;26080;42.264;24.536;2023-01-28T06:51:14;98864.16;;;2.12;100.00
39793;BME280;26080;42.264;24.536;2023-01-28T06:53:40;98897.38;;;2.30;100.00
39793;BME280;26080;42.264;24.536;2023-01-28T06:56:06;98893.84;;;2.35;100.00
39793;BME280;26080;42.264;24.536;2023-01-28T06:58:31;98870.03;;;2.20;100.00
39793;BME280;26080;42.264;24.536;2023-01-28T07:00:57;98902.31;;;2.41;100.00
39793;BME280;26080;42.264;24.536;2023-01-28T07:03:22;98913.44;;;2.44;100.00
39793;BME280;26080;42.264;24.536;2023-01-28T07:05:48;98906.47;;;2.49;100.00
39793;BME280;26080;42.264;24.536;2023-01-28T07:08:13;98906.25;;;2.58;100.00
39793;BME280;26080;42.264;24.536;2023-01-28T07:10:39;98909.53;;;2.66;100.00
39793;BME280;26080;42.264;24.536;2023-01-28T07:13:04;98912.13;;;2.66;100.00
39793;BME280;26080;42.264;24.536;2023-01-28T07:15:30;98918.00;;;2.73;100.00
39793;BME280;26080;42.264;24.536;2023-01-28T07:17:55;98916.19;;;2.78;100.00
39793;BME280;26080;42.264;24.536;2023-01-28T07:20:21;98923.78;;;2.84;100.00
39793;BME280;26080;42.264;24.536;2023-01-28T07:22:46;98922.78;;;2.91;100.00
39793;BME280;26080;42.264;24.536;2023-01-28T07:25:13;98922.56;;;3.01;100.00
39793;BME280;26080;42.264;24.536;2023-01-28T07:27:44;98929.25;;;3.09;100.00
39793;BME280;26080;42.264;24.536;2023-01-28T07:30:10;98934.38;;;3.12;100.00
39793;BME280;26080;42.264;24.536;2023-01-28T07:32:35;98933.44;;;3.16;100.00
39793;BME280;26080;42.264;24.536;2023-01-28T07:35:01;98938.53;;;3.19;100.00
39793;BME280;26080;42.264;24.536;2023-01-28T07:37:26;98936.41;;;3.35;100.00
39793;BME280;26080;42.264;24.536;2023-01-28T07:39:52;98943.91;;;3.47;100.00
39793;BME280;26080;42.264;24.536;2023-01-28T07:42:17;98940.34;;;3.51;100.00
39793;BME280;26080;42.264;24.536;2023-01-28T07:44:43;98960.00;;;3.60;100.00
39793;BME280;26080;42.264;24.536;2023-01-28T07:47:08;98958.97;;;3.66;100.00
39793;BME280;26080;42.264;24.536;2023-01-28T07:49:43;98956.13;;;3.76;100.00
39793;BME280;26080;42.264;24.536;2023-01-28T07:52:08;98961.78;;;3.91;100.00
39793;BME280;26080;42.264;24.536;2023-01-28T07:54:36;98963.28;;;4.01;100.00
39793;BME280;26080;42.264;24.536;2023-01-28T07:57:06;98958.81;;;4.06;100.00
39793;BME280;26080;42.264;24.536;2023-01-28T07:59:34;98962.81;;;4.18;100.00
39793;BME280;26080;42.264;24.536;2023-01-28T08:02:03;98972.16;;;4.23;100.00
39793;BME280;26080;42.264;24.536;2023-01-28T08:04:28;98968.44;;;4.33;100.00
39793;BME280;26080;42.264;24.536;2023-01-28T08:06:53;98965.78;;;4.35;100.00
39793;BME280;26080;42.264;24.536;2023-01-28T08:09:53;98973.09;;;4.52;100.00
39793;BME280;26080;42.264;24.536;2023-01-28T08:12:17;98970.22;;;4.62;100.00
39793;BME280;26080;42.264;24.536;2023-01-28T08:14:43;98961.56;;;4.62;100.00
39793;BME280;26080;42.264;24.536;2023-01-28T08:17:08;98967.41;;;4.70;100.00
39793;BME280;26080;42.264;24.536;2023-01-28T08:19:33;98971.44;;;4.80;100.00
39793;BME280;26080;42.264;24.536;2023-01-28T08:21:59;98974.84;;;4.82;100.00
39793;BME280;26080;42.264;24.536;2023-01-28T08:24:24;98976.25;;;4.92;100.00
39793;BME280;26080;42.264;24.536;2023-01-28T08:26:50;98975.97;;;5.01;100.00
39793;BME280;26080;42.264;24.536;2023-01-28T08:29:15;98974.88;;;5.10;100.00
39793;BME280;26080;42.264;24.536;2023-01-28T08:31:41;98982.72;;;5.09;100.00
39793;BME280;26080;42.264;24.536;2023-01-28T08:34:06;98977.31;;;5.15;100.00
39793;BME280;26080;42.264;24.536;2023-01-28T08:36:32;98982.50;;;5.15;100.00
39793;BME280;26080;42.264;24.536;2023-01-28T08:38:57;98983.34;;;5.15;100.00
39793;BME280;26080;42.264;24.536;2023-01-28T08:41:23;98979.00;;;5.16;100.00
39793;BME280;26080;42.264;24.536;2023-01-28T08:43:48;98985.09;;;5.15;100.00
39793;BME280;26080;42.264;24.536;2023-01-28T08:46:14;98983.34;;;5.15;100.00
39793;BME280;26080;42.264;24.536;2023-01-28T08:48:40;98993.00;;;5.12;100.00
39793;BME280;26080;42.264;24.536;2023-01-28T08:51:06;98988.53;;;5.15;100.00
39793;BME280;26080;42.264;24.536;2023-01-28T08:53:31;98991.34;;;5.09;100.00
39793;BME280;26080;42.264;24.536;2023-01-28T08:55:57;98994.69;;;5.13;100.00
39793;BME280;26080;42.264;24.536;2023-01-28T08:58:22;99000.69;;;5.15;100.00
39793;BME280;26080;42.264;24.536;2023-01-28T09:00:49;99012.06;;;5.11;100.00
39793;BME280;26080;42.264;24.536;2023-01-28T09:03:15;99008.63;;;5.10;100.00
39793;BME280;26080;42.264;24.536;2023-01-28T09:05:41;99011.75;;;5.20;100.00
39793;BME280;26080;42.264;24.536;2023-01-28T09:08:14;99007.16;;;5.29;100.00
39793;BME280;26080;42.264;24.536;2023-01-28T09:10:40;99003.34;;;5.41;100.00
39793;BME280;26080;42.264;24.536;2023-01-28T09:13:15;99010.75;;;5.53;100.00
39793;BME280;26080;42.264;24.536;2023-01-28T09:15:43;98999.13;;;5.65;100.00
39793;BME280;26080;42.264;24.536;2023-01-28T09:18:09;98994.06;;;5.87;100.00
39793;BME280;26080;42.264;24.536;2023-01-28T09:20:36;99005.53;;;6.08;100.00
39793;BME280;26080;42.264;24.536;2023-01-28T09:23:01;99007.06;;;6.13;100.00
39793;BME280;26080;42.264;24.536;2023-01-28T09:25:27;99009.25;;;6.26;100.00
39793;BME280;26080;42.264;24.536;2023-01-28T09:27:53;98988.00;;;6.38;100.00
39793;BME280;26080;42.264;24.536;2023-01-28T09:30:19;98993.91;;;6.43;100.00
39793;BME280;26080;42.264;24.536;2023-01-28T09:32:44;98989.34;;;6.24;100.00
39793;BME280;26080;42.264;24.536;2023-01-28T09:35:13;98996.94;;;6.31;100.00
39793;BME280;26080;42.264;24.536;2023-01-28T09:37:39;99001.03;;;6.38;100.00
39793;BME280;26080;42.264;24.536;2023-01-28T09:40:05;99004.00;;;6.27;100.00
39793;BME280;26080;42.264;24.536;2023-01-28T09:43:01;99002.94;;;6.33;100.00
39793;BME280;26080;42.264;24.536;2023-01-28T09:48:00;99014.44;;;6.26;100.00
39793;BME280;26080;42.264;24.536;2023-01-28T09:50:49;99010.38;;;6.18;100.00
39793;BME280;26080;42.264;24.536;2023-01-28T09:55:48;99018.88;;;5.97;100.00
39793;BME280;26080;42.264;24.536;2023-01-28T09:58:15;99003.19;;;6.00;100.00
39793;BME280;26080;42.264;24.536;2023-01-28T10:17:51;99011.44;;;5.58;100.00
39793;BME280;26080;42.264;24.536;2023-01-28T10:20:29;99016.19;;;5.72;100.00
39793;BME280;26080;42.264;24.536;2023-01-28T10:25:42;99021.53;;;5.68;100.00
39793;BME280;26080;42.264;24.536;2023-01-28T10:28:27;99027.81;;;5.60;100.00
39793;BME280;26080;42.264;24.536;2023-01-28T10:30:53;99018.28;;;5.61;100.00
39793;BME280;26080;42.264;24.536;2023-01-28T10:33:32;99026.06;;;5.61;100.00
39793;BME280;26080;42.264;24.536;2023-01-28T10:36:00;99028.72;;;5.59;100.00
39793;BME280;26080;42.264;24.536;2023-01-28T10:38:26;99003.53;;;5.35;100.00
39793;BME280;26080;42.264;24.536;2023-01-28T10:40:56;99024.91;;;5.43;100.00
39793;BME280;26080;42.264;24.536;2023-01-28T10:43:24;99021.22;;;5.50;100.00
39793;BME280;26080;42.264;24.536;2023-01-28T10:46:31;99025.69;;;5.45;100.00
39793;BME280;26080;42.264;24.536;2023-01-28T10:51:39;99036.75;;;5.24;100.00
39793;BME280;26080;42.264;24.536;2023-01-28T10:54:23;99033.84;;;5.34;100.00
39793;BME280;26080;42.264;24.536;2023-01-28T10:56:58;99021.47;;;5.43;100.00
39793;BME280;26080;42.264;24.536;2023-01-28T10:59:32;99021.47;;;5.43;100.00
39793;BME280;26080;42.264;24.536;2023-01-28T11:02:03;99003.09;;;5.21;100.00
39793;BME280;26080;42.264;24.536;2023-01-28T11:04:34;99002.63;;;5.36;100.00
39793;BME280;26080;42.264;24.536;2023-01-28T11:07:06;99025.19;;;5.34;100.00
39793;BME280;26080;42.264;24.536;2023-01-28T11:09:44;99022.94;;;5.23;100.00
39793;BME280;26080;42.264;24.536;2023-01-28T11:17:25;99011.75;;;5.48;100.00
39793;BME280;26080;42.264;24.536;2023-01-28T11:19:57;99015.66;;;5.62;100.00
39793;BME280;26080;42.264;24.536;2023-01-28T11:24:51;99011.88;;;5.45;100.00
39793;BME280;26080;42.264;24.536;2023-01-28T11:27:24;99023.47;;;5.61;100.00
39793;BME280;26080;42.264;24.536;2023-01-28T11:29:55;99019.59;;;5.74;100.00
39793;BME280;26080;42.264;24.536;2023-01-28T11:32:24;99022.22;;;5.73;100.00
39793;BME280;26080;42.264;24.536;2023-01-28T11:34:53;99020.66;;;5.69;100.00
39793;BME280;26080;42.264;24.536;2023-01-28T11:37:22;99022.78;;;5.56;100.00
39793;BME280;26080;42.264;24.536;2023-01-28T11:39:59;98996.34;;;5.43;100.00
39793;BME280;26080;42.264;24.536;2023-01-28T11:42:24;99024.81;;;5.46;100.00
39793;BME280;26080;42.264;24.536;2023-01-28T11:44:50;99020.34;;;5.51;100.00
39793;BME280;26080;42.264;24.536;2023-01-28T11:53:45;99021.22;;;5.22;100.00
39793;BME280;26080;42.264;24.536;2023-01-28T11:56:01;99016.22;;;5.44;100.00
39793;BME280;26080;42.264;24.536;2023-01-28T11:58:52;99031.09;;;5.39;100.00
39793;BME280;26080;42.264;24.536;2023-01-28T12:04:24;99030.31;;;5.37;100.00
39793;BME280;26080;42.264;24.536;2023-01-28T12:09:37;99033.56;;;5.14;100.00
39793;BME280;26080;42.264;24.536;2023-01-28T12:31:21;99041.19;;;4.60;100.00
39793;BME280;26080;42.264;24.536;2023-01-28T12:41:45;99048.09;;;4.28;100.00
39793;BME280;26080;42.264;24.536;2023-01-28T12:44:25;99046.34;;;4.29;100.00
39793;BME280;26080;42.264;24.536;2023-01-28T12:47:00;99035.53;;;4.13;100.00
39793;BME280;26080;42.264;24.536;2023-01-28T12:49:47;99051.44;;;3.98;100.00
39793;BME280;26080;42.264;24.536;2023-01-28T12:55:13;99058.38;;;3.96;100.00
39793;BME280;26080;42.264;24.536;2023-01-28T12:57:40;99061.94;;;3.92;100.00
39793;BME280;26080;42.264;24.536;2023-01-28T13:00:42;99065.59;;;3.83;100.00
39793;BME280;26080;42.264;24.536;2023-01-28T13:05:54;99034.06;;;3.66;100.00
39793;BME280;26080;42.264;24.536;2023-01-28T13:08:25;99072.59;;;3.79;100.00
39793;BME280;26080;42.264;24.536;2023-01-28T13:10:53;99061.47;;;3.76;100.00
39793;BME280;26080;42.264;24.536;2023-01-28T13:15:49;99080.66;;;3.67;100.00
39793;BME280;26080;42.264;24.536;2023-01-28T13:18:50;99080.50;;;3.75;100.00
39793;BME280;26080;42.264;24.536;2023-01-28T13:23:48;99058.19;;;3.68;100.00
39793;BME280;26080;42.264;24.536;2023-01-28T13:28:47;99093.13;;;3.89;100.00
39793;BME280;26080;42.264;24.536;2023-01-28T13:31:15;99092.03;;;3.97;100.00
39793;BME280;26080;42.264;24.536;2023-01-28T13:34:03;99072.09;;;4.01;100.00
39793;BME280;26080;42.264;24.536;2023-01-28T13:41:40;99104.25;;;4.62;100.00
39793;BME280;26080;42.264;24.536;2023-01-28T13:46:45;99107.78;;;4.90;100.00
39793;BME280;26080;42.264;24.536;2023-01-28T13:49:16;99106.31;;;5.13;100.00
39793;BME280;26080;42.264;24.536;2023-01-28T13:52:03;99101.44;;;5.31;100.00
39793;BME280;26080;42.264;24.536;2023-01-28T13:54:34;99103.72;;;5.42;100.00
39793;BME280;26080;42.264;24.536;2023-01-28T14:03:16;99119.38;;;5.69;100.00
39793;BME280;26080;42.264;24.536;2023-01-28T14:15:09;99123.53;;;5.74;100.00
39793;BME280;26080;42.264;24.536;2023-01-28T14:17:45;99127.44;;;5.59;100.00
39793;BME280;26080;42.264;24.536;2023-01-28T14:20:34;99130.66;;;5.68;100.00
39793;BME280;26080;42.264;24.536;2023-01-28T14:23:05;99131.94;;;5.54;100.00
39793;BME280;26080;42.264;24.536;2023-01-28T14:31:36;99131.84;;;5.28;100.00
39793;BME280;26080;42.264;24.536;2023-01-28T14:33:59;99107.88;;;4.87;100.00
39793;BME280;26080;42.264;24.536;2023-01-28T14:36:28;99128.34;;;4.98;100.00
39793;BME280;26080;42.264;24.536;2023-01-28T14:38:54;99143.19;;;4.93;100.00
39793;BME280;26080;42.264;24.536;2023-01-28T14:41:24;99129.34;;;4.94;100.00
39793;BME280;26080;42.264;24.536;2023-01-28T14:43:53;99142.09;;;5.01;100.00
39793;BME280;26080;42.264;24.536;2023-01-28T14:47:02;99148.41;;;4.91;100.00
39793;BME280;26080;42.264;24.536;2023-01-28T14:55:34;99153.88;;;4.48;100.00
39793;BME280;26080;42.264;24.536;2023-01-28T14:57:57;99160.66;;;4.54;100.00
39793;BME280;26080;42.264;24.536;2023-01-28T15:00:25;99161.66;;;4.48;100.00
39793;BME280;26080;42.264;24.536;2023-01-28T15:02:51;99162.03;;;4.33;100.00
39793;BME280;26080;42.264;24.536;2023-01-28T15:05:25;99165.81;;;4.20;100.00
39793;BME280;26080;42.264;24.536;2023-01-28T15:07:51;99169.56;;;4.06;100.00
39793;BME280;26080;42.264;24.536;2023-01-28T15:13:06;99182.72;;;3.99;100.00
39793;BME280;26080;42.264;24.536;2023-01-28T15:15:34;99187.94;;;3.96;100.00
39793;BME280;26080;42.264;24.536;2023-01-28T15:18:14;99151.94;;;3.83;100.00
39793;BME280;26080;42.264;24.536;2023-01-28T15:20:52;99191.47;;;3.93;100.00
39793;BME280;26080;42.264;24.536;2023-01-28T15:23:27;99175.47;;;3.74;100.00
39793;BME280;26080;42.264;24.536;2023-01-28T15:25:54;99166.97;;;3.68;100.00
39793;BME280;26080;42.264;24.536;2023-01-28T15:30:51;99196.06;;;3.80;100.00
39793;BME280;26080;42.264;24.536;2023-01-28T15:33:19;99195.31;;;3.75;100.00
39793;BME280;26080;42.264;24.536;2023-01-28T15:35:46;99199.63;;;3.75;100.00
39793;BME280;26080;42.264;24.536;2023-01-28T15:38:12;99178.41;;;3.59;100.00
39793;BME280;26080;42.264;24.536;2023-01-28T15:41:03;99210.84;;;3.75;100.00